sensor_id;sensor_type;location;lat;lon;timestamp;P1;durP1;ratioP1;P2;durP2;ratioP2
2998;SDS011;1509;51.964;7.628;2023-01-26T00:01:58;87.37;;;36.03;;
2998;SDS011;1509;51.964;7.628;2023-01-26T00:04:24;99.67;;;34.47;;
2998;SDS011;1509;51.964;7.628;2023-01-26T00:06:53;82.10;;;34.27;;
2998;SDS011;1509;51.964;7.628;2023-01-26T00:09:18;89.53;;;34.40;;
2998;SDS011;1509;51.964;7.628;2023-01-26T00:11:44;106.13;;;36.17;;
2998;SDS011;1509;51.964;7.628;2023-01-26T00:14:09;89.57;;;37.43;;
2998;SDS011;1509;51.964;7.628;2023-01-26T00:16:35;76.03;;;34.87;;
2998;SDS011;1509;51.964;7.628;2023-01-26T00:19:00;76.53;;;32.50;;
2998;SDS011;1509;51.964;7.628;2023-01-26T00:21:27;97.27;;;37.60;;
2998;SDS011;1509;51.964;7.628;2023-01-26T00:23:53;92.47;;;39.83;;
2998;SDS011;1509;51.964;7.628;2023-01-26T00:26:22;97.93;;;42.07;;
2998;SDS011;1509;51.964;7.628;2023-01-26T00:28:49;82.83;;;37.80;;
2998;SDS011;1509;51.964;7.628;2023-01-26T00:31:16;77.80;;;34.70;;
2998;SDS011;1509;51.964;7.628;2023-01-26T00:33:44;85.07;;;37.23;;
2998;SDS011;1509;51.964;7.628;2023-01-26T00:36:10;99.53;;;38.80;;
2998;SDS011;1509;51.964;7.628;2023-01-26T00:38:37;95.93;;;42.07;;
2998;SDS011;1509;51.964;7.628;2023-01-26T00:41:03;112.50;;;39.23;;
2998;SDS011;1509;51.964;7.628;2023-01-26T00:43:29;114.90;;;41.30;;
2998;SDS011;1509;51.964;7.628;2023-01-26T00:45:57;81.43;;;37.00;;
2998;SDS011;1509;51.964;7.628;2023-01-26T00:48:23;91.90;;;38.20;;
2998;SDS011;1509;51.964;7.628;2023-01-26T00:50:49;100.60;;;38.17;;
2998;SDS011;1509;51.964;7.628;2023-01-26T00:53:16;90.63;;;36.00;;
2998;SDS011;1509;51.964;7.628;2023-01-26T00:55:41;86.33;;;36.07;;
2998;SDS011;1509;51.964;7.628;2023-01-26T00:58:07;97.03;;;37.00;;
2998;SDS011;1509;51.964;7.628;2023-01-26T01:00:34;89.00;;;36.40;;
2998;SDS011;1509;51.964;7.628;2023-01-26T01:03:02;84.57;;;36.43;;
2998;SDS011;1509;51.964;7.628;2023-01-26T01:05:29;105.77;;;40.33;;
2998;SDS011;1509;51.964;7.628;2023-01-26T01:07:55;102.00;;;38.87;;
2998;SDS011;1509;51.964;7.628;2023-01-26T01:10:21;94.17;;;40.20;;
2998;SDS011;1509;51.964;7.628;2023-01-26T01:12:48;93.37;;;34.90;;
2998;SDS011;1509;51.964;7.628;2023-01-26T01:15:14;107.77;;;38.00;;
2998;SDS011;1509;51.964;7.628;2023-01-26T01:17:40;77.63;;;37.00;;
2998;SDS011;1509;51.964;7.628;2023-01-26T01:20:06;90.33;;;38.03;;
2998;SDS011;1509;51.964;7.628;2023-01-26T01:22:33;98.10;;;36.13;;
2998;SDS011;1509;51.964;7.628;2023-01-26T01:24:59;107.50;;;38.80;;
2998;SDS011;1509;51.964;7.628;2023-01-26T01:27:28;102.87;;;37.97;;
2998;SDS011;1509;51.964;7.628;2023-01-26T01:29:53;82.97;;;34.67;;
2998;SDS011;1509;51.964;7.628;2023-01-26T01:32:22;101.13;;;34.90;;
2998;SDS011;1509;51.964;7.628;2023-01-26T01:34:48;85.27;;;36.13;;
2998;SDS011;1509;51.964;7.628;2023-01-26T01:37:15;99.13;;;36.03;;
2998;SDS011;1509;51.964;7.628;2023-01-26T01:39:41;84.27;;;37.07;;
2998;SDS011;1509;51.964;7.628;2023-01-26T01:42:07;96.83;;;37.53;;
2998;SDS011;1509;51.964;7.628;2023-01-26T01:44:33;81.57;;;34.20;;
2998;SDS011;1509;51.964;7.628;2023-01-26T01:47:01;85.83;;;37.80;;
2998;SDS011;1509;51.964;7.628;2023-01-26T01:49:37;85.27;;;34.00;;
2998;SDS011;1509;51.964;7.628;2023-01-26T01:54:52;83.40;;;36.60;;
2998;SDS011;1509;51.964;7.628;2023-01-26T01:57:25;89.97;;;35.63;;
2998;SDS011;1509;51.964;7.628;2023-01-26T02:00:01;82.07;;;34.17;;
2998;SDS011;1509;51.964;7.628;2023-01-26T02:02:30;99.00;;;40.27;;
2998;SDS011;1509;51.964;7.628;2023-01-26T02:04:56;85.63;;;33.63;;
2998;SDS011;1509;51.964;7.628;2023-01-26T02:07:27;83.60;;;33.80;;
2998;SDS011;1509;51.964;7.628;2023-01-26T02:09:55;92.40;;;34.97;;
2998;SDS011;1509;51.964;7.628;2023-01-26T02:12:40;91.93;;;36.83;;
2998;SDS011;1509;51.964;7.628;2023-01-26T02:15:06;97.93;;;36.33;;
2998;SDS011;1509;51.964;7.628;2023-01-26T02:17:32;103.00;;;36.37;;
2998;SDS011;1509;51.964;7.628;2023-01-26T02:28:06;89.70;;;34.10;;
2998;SDS011;1509;51.964;7.628;2023-01-26T02:30:32;100.73;;;35.67;;
2998;SDS011;1509;51.964;7.628;2023-01-26T02:32:58;92.63;;;38.10;;
2998;SDS011;1509;51.964;7.628;2023-01-26T02:35:24;81.00;;;32.37;;
2998;SDS011;1509;51.964;7.628;2023-01-26T02:37:49;92.87;;;36.30;;
2998;SDS011;1509;51.964;7.628;2023-01-26T02:40:28;71.23;;;36.10;;
2998;SDS011;1509;51.964;7.628;2023-01-26T02:43:00;77.43;;;36.47;;
2998;SDS011;1509;51.964;7.628;2023-01-26T02:45:26;82.93;;;34.67;;
2998;SDS011;1509;51.964;7.628;2023-01-26T02:47:54;82.77;;;35.57;;
2998;SDS011;1509;51.964;7.628;2023-01-26T02:50:20;92.77;;;35.20;;
2998;SDS011;1509;51.964;7.628;2023-01-26T02:52:45;87.07;;;33.23;;
2998;SDS011;1509;51.964;7.628;2023-01-26T02:55:11;84.27;;;32.97;;
2998;SDS011;1509;51.964;7.628;2023-01-26T02:57:56;84.17;;;37.13;;
2998;SDS011;1509;51.964;7.628;2023-01-26T03:00:33;78.50;;;33.10;;
2998;SDS011;1509;51.964;7.628;2023-01-26T03:03:01;84.70;;;37.60;;
2998;SDS011;1509;51.964;7.628;2023-01-26T03:06:06;88.40;;;36.93;;
2998;SDS011;1509;51.964;7.628;2023-01-26T03:08:36;83.40;;;35.97;;
2998;SDS011;1509;51.964;7.628;2023-01-26T03:11:02;86.33;;;35.87;;
2998;SDS011;1509;51.964;7.628;2023-01-26T03:13:29;85.73;;;32.97;;
2998;SDS011;1509;51.964;7.628;2023-01-26T03:15:55;97.00;;;33.90;;
2998;SDS011;1509;51.964;7.628;2023-01-26T03:18:26;86.27;;;32.17;;
2998;SDS011;1509;51.964;7.628;2023-01-26T03:21:12;77.03;;;33.90;;
2998;SDS011;1509;51.964;7.628;2023-01-26T03:23:59;82.10;;;33.77;;
2998;SDS011;1509;51.964;7.628;2023-01-26T03:26:43;89.87;;;33.63;;
2998;SDS011;1509;51.964;7.628;2023-01-26T03:29:28;103.73;;;39.37;;
2998;SDS011;1509;51.964;7.628;2023-01-26T03:31:54;91.40;;;36.80;;
2998;SDS011;1509;51.964;7.628;2023-01-26T03:34:20;104.53;;;35.60;;
2998;SDS011;1509;51.964;7.628;2023-01-26T03:36:46;83.97;;;33.40;;
2998;SDS011;1509;51.964;7.628;2023-01-26T03:39:12;82.97;;;36.10;;
2998;SDS011;1509;51.964;7.628;2023-01-26T03:41:58;92.00;;;37.30;;
2998;SDS011;1509;51.964;7.628;2023-01-26T03:44:43;105.00;;;37.50;;
2998;SDS011;1509;51.964;7.628;2023-01-26T03:47:27;85.27;;;33.70;;
2998;SDS011;1509;51.964;7.628;2023-01-26T03:50:11;89.30;;;35.20;;
2998;SDS011;1509;51.964;7.628;2023-01-26T03:52:55;92.50;;;36.67;;
2998;SDS011;1509;51.964;7.628;2023-01-26T03:55:39;100.17;;;35.90;;
2998;SDS011;1509;51.964;7.628;2023-01-26T03:58:23;87.00;;;36.90;;
2998;SDS011;1509;51.964;7.628;2023-01-26T04:00:54;98.43;;;37.60;;
2998;SDS011;1509;51.964;7.628;2023-01-26T04:03:20;95.77;;;35.73;;
2998;SDS011;1509;51.964;7.628;2023-01-26T04:06:04;93.30;;;35.90;;
2998;SDS011;1509;51.964;7.628;2023-01-26T04:08:48;85.80;;;35.43;;
2998;SDS011;1509;51.964;7.628;2023-01-26T04:11:14;100.30;;;37.03;;
2998;SDS011;1509;51.964;7.628;2023-01-26T04:13:40;109.70;;;40.57;;
2998;SDS011;1509;51.964;7.628;2023-01-26T04:16:24;100.27;;;36.90;;
2998;SDS011;1509;51.964;7.628;2023-01-26T04:19:09;93.43;;;33.57;;
2998;SDS011;1509;51.964;7.628;2023-01-26T04:21:53;86.50;;;36.97;;
2998;SDS011;1509;51.964;7.628;2023-01-26T04:24:19;95.40;;;37.00;;
2998;SDS011;1509;51.964;7.628;2023-01-26T04:26:46;84.77;;;34.70;;
2998;SDS011;1509;51.964;7.628;2023-01-26T04:29:13;101.43;;;38.70;;
2998;SDS011;1509;51.964;7.628;2023-01-26T04:31:39;90.33;;;38.07;;
2998;SDS011;1509;51.964;7.628;2023-01-26T04:34:06;82.60;;;33.37;;
2998;SDS011;1509;51.964;7.628;2023-01-26T04:36:35;94.07;;;35.80;;
2998;SDS011;1509;51.964;7.628;2023-01-26T04:39:00;101.77;;;38.97;;
2998;SDS011;1509;51.964;7.628;2023-01-26T04:41:31;99.30;;;35.33;;
2998;SDS011;1509;51.964;7.628;2023-01-26T04:43:58;97.97;;;40.13;;
2998;SDS011;1509;51.964;7.628;2023-01-26T04:46:24;93.87;;;35.80;;
2998;SDS011;1509;51.964;7.628;2023-01-26T04:48:50;92.67;;;36.33;;
2998;SDS011;1509;51.964;7.628;2023-01-26T04:51:17;96.77;;;37.43;;
2998;SDS011;1509;51.964;7.628;2023-01-26T04:53:44;96.33;;;37.60;;
2998;SDS011;1509;51.964;7.628;2023-01-26T04:56:30;101.80;;;40.40;;
2998;SDS011;1509;51.964;7.628;2023-01-26T04:59:00;121.20;;;41.50;;
2998;SDS011;1509;51.964;7.628;2023-01-26T05:01:27;108.23;;;37.27;;
2998;SDS011;1509;51.964;7.628;2023-01-26T05:03:53;94.70;;;38.97;;
2998;SDS011;1509;51.964;7.628;2023-01-26T05:06:19;110.60;;;35.40;;
2998;SDS011;1509;51.964;7.628;2023-01-26T05:08:45;99.63;;;38.40;;
2998;SDS011;1509;51.964;7.628;2023-01-26T05:11:11;90.00;;;38.67;;
2998;SDS011;1509;51.964;7.628;2023-01-26T05:13:39;120.43;;;39.80;;
2998;SDS011;1509;51.964;7.628;2023-01-26T05:16:05;99.53;;;37.43;;
2998;SDS011;1509;51.964;7.628;2023-01-26T05:18:31;89.30;;;38.03;;
2998;SDS011;1509;51.964;7.628;2023-01-26T05:20:57;102.43;;;37.50;;
2998;SDS011;1509;51.964;7.628;2023-01-26T05:23:23;110.17;;;43.17;;
2998;SDS011;1509;51.964;7.628;2023-01-26T05:25:49;93.47;;;37.23;;
2998;SDS011;1509;51.964;7.628;2023-01-26T05:28:14;87.53;;;35.20;;
2998;SDS011;1509;51.964;7.628;2023-01-26T05:30:40;81.57;;;35.70;;
2998;SDS011;1509;51.964;7.628;2023-01-26T05:33:06;86.17;;;34.07;;
2998;SDS011;1509;51.964;7.628;2023-01-26T05:35:32;103.47;;;37.87;;
2998;SDS011;1509;51.964;7.628;2023-01-26T05:37:58;79.47;;;31.50;;
2998;SDS011;1509;51.964;7.628;2023-01-26T05:40:27;94.23;;;35.83;;
2998;SDS011;1509;51.964;7.628;2023-01-26T05:42:53;82.23;;;33.30;;
2998;SDS011;1509;51.964;7.628;2023-01-26T05:45:19;79.10;;;34.30;;
2998;SDS011;1509;51.964;7.628;2023-01-26T05:47:46;94.07;;;36.80;;
2998;SDS011;1509;51.964;7.628;2023-01-26T05:50:15;75.53;;;32.60;;
2998;SDS011;1509;51.964;7.628;2023-01-26T05:52:42;85.03;;;34.33;;
2998;SDS011;1509;51.964;7.628;2023-01-26T05:55:10;83.47;;;32.90;;
2998;SDS011;1509;51.964;7.628;2023-01-26T05:57:36;84.63;;;33.03;;
2998;SDS011;1509;51.964;7.628;2023-01-26T06:00:03;77.00;;;34.70;;
2998;SDS011;1509;51.964;7.628;2023-01-26T06:02:30;83.40;;;36.90;;
2998;SDS011;1509;51.964;7.628;2023-01-26T06:04:56;87.80;;;36.20;;
2998;SDS011;1509;51.964;7.628;2023-01-26T06:07:21;84.77;;;33.07;;
2998;SDS011;1509;51.964;7.628;2023-01-26T06:09:47;71.63;;;30.63;;
2998;SDS011;1509;51.964;7.628;2023-01-26T06:12:13;79.70;;;34.67;;
2998;SDS011;1509;51.964;7.628;2023-01-26T06:14:40;63.33;;;29.83;;
2998;SDS011;1509;51.964;7.628;2023-01-26T06:17:06;75.83;;;32.30;;
2998;SDS011;1509;51.964;7.628;2023-01-26T06:19:32;78.80;;;31.70;;
2998;SDS011;1509;51.964;7.628;2023-01-26T06:22:00;74.17;;;31.43;;
2998;SDS011;1509;51.964;7.628;2023-01-26T06:24:25;72.10;;;29.10;;
2998;SDS011;1509;51.964;7.628;2023-01-26T06:26:51;62.97;;;29.00;;
2998;SDS011;1509;51.964;7.628;2023-01-26T06:29:16;76.67;;;28.63;;
2998;SDS011;1509;51.964;7.628;2023-01-26T06:31:42;75.43;;;30.47;;
2998;SDS011;1509;51.964;7.628;2023-01-26T06:34:08;67.47;;;29.70;;
2998;SDS011;1509;51.964;7.628;2023-01-26T06:36:34;62.73;;;30.07;;
2998;SDS011;1509;51.964;7.628;2023-01-26T06:39:00;77.07;;;26.30;;
2998;SDS011;1509;51.964;7.628;2023-01-26T06:41:26;68.97;;;27.90;;
2998;SDS011;1509;51.964;7.628;2023-01-26T06:43:52;74.53;;;28.30;;
2998;SDS011;1509;51.964;7.628;2023-01-26T06:46:18;66.97;;;28.93;;
2998;SDS011;1509;51.964;7.628;2023-01-26T06:48:44;78.37;;;33.13;;
2998;SDS011;1509;51.964;7.628;2023-01-26T06:53:46;91.43;;;30.17;;
2998;SDS011;1509;51.964;7.628;2023-01-26T06:56:15;65.30;;;26.83;;
2998;SDS011;1509;51.964;7.628;2023-01-26T06:58:41;62.80;;;27.03;;
2998;SDS011;1509;51.964;7.628;2023-01-26T07:01:08;70.60;;;27.07;;
2998;SDS011;1509;51.964;7.628;2023-01-26T07:03:41;62.43;;;26.40;;
2998;SDS011;1509;51.964;7.628;2023-01-26T07:06:07;59.10;;;24.50;;
2998;SDS011;1509;51.964;7.628;2023-01-26T07:08:36;69.73;;;29.67;;
2998;SDS011;1509;51.964;7.628;2023-01-26T07:11:02;71.47;;;28.10;;
2998;SDS011;1509;51.964;7.628;2023-01-26T07:13:28;65.30;;;27.30;;
2998;SDS011;1509;51.964;7.628;2023-01-26T07:18:26;77.10;;;29.90;;
2998;SDS011;1509;51.964;7.628;2023-01-26T07:20:52;60.40;;;24.33;;
2998;SDS011;1509;51.964;7.628;2023-01-26T07:23:18;53.60;;;22.93;;
2998;SDS011;1509;51.964;7.628;2023-01-26T07:25:45;52.60;;;24.47;;
2998;SDS011;1509;51.964;7.628;2023-01-26T07:28:11;60.03;;;25.40;;
2998;SDS011;1509;51.964;7.628;2023-01-26T07:30:37;56.73;;;24.97;;
2998;SDS011;1509;51.964;7.628;2023-01-26T07:33:03;51.13;;;22.90;;
2998;SDS011;1509;51.964;7.628;2023-01-26T07:35:29;48.87;;;21.57;;
2998;SDS011;1509;51.964;7.628;2023-01-26T07:37:55;65.03;;;23.80;;
2998;SDS011;1509;51.964;7.628;2023-01-26T07:40:22;51.40;;;23.37;;
2998;SDS011;1509;51.964;7.628;2023-01-26T07:42:49;56.30;;;23.70;;
2998;SDS011;1509;51.964;7.628;2023-01-26T07:45:15;51.43;;;22.30;;
2998;SDS011;1509;51.964;7.628;2023-01-26T07:47:42;51.70;;;23.87;;
2998;SDS011;1509;51.964;7.628;2023-01-26T07:50:08;61.13;;;24.97;;
2998;SDS011;1509;51.964;7.628;2023-01-26T07:52:35;51.67;;;23.03;;
2998;SDS011;1509;51.964;7.628;2023-01-26T07:55:02;56.00;;;21.17;;
2998;SDS011;1509;51.964;7.628;2023-01-26T07:57:28;66.50;;;24.60;;
2998;SDS011;1509;51.964;7.628;2023-01-26T07:59:54;53.50;;;24.50;;
2998;SDS011;1509;51.964;7.628;2023-01-26T08:02:20;45.77;;;24.20;;
2998;SDS011;1509;51.964;7.628;2023-01-26T08:04:46;53.90;;;23.43;;
2998;SDS011;1509;51.964;7.628;2023-01-26T08:07:13;56.30;;;23.70;;
2998;SDS011;1509;51.964;7.628;2023-01-26T08:09:39;56.37;;;22.83;;
2998;SDS011;1509;51.964;7.628;2023-01-26T08:12:05;55.63;;;22.33;;
2998;SDS011;1509;51.964;7.628;2023-01-26T08:14:31;51.17;;;23.10;;
2998;SDS011;1509;51.964;7.628;2023-01-26T08:17:00;56.20;;;23.97;;
2998;SDS011;1509;51.964;7.628;2023-01-26T08:19:26;56.87;;;21.40;;
2998;SDS011;1509;51.964;7.628;2023-01-26T08:21:52;48.77;;;22.30;;
2998;SDS011;1509;51.964;7.628;2023-01-26T08:24:18;51.40;;;22.13;;
2998;SDS011;1509;51.964;7.628;2023-01-26T08:26:44;53.83;;;24.53;;
2998;SDS011;1509;51.964;7.628;2023-01-26T08:29:10;47.40;;;23.03;;
2998;SDS011;1509;51.964;7.628;2023-01-26T08:31:36;51.40;;;21.17;;
2998;SDS011;1509;51.964;7.628;2023-01-26T08:34:02;47.20;;;19.70;;
2998;SDS011;1509;51.964;7.628;2023-01-26T08:36:28;59.37;;;23.83;;
2998;SDS011;1509;51.964;7.628;2023-01-26T08:38:54;50.10;;;21.47;;
2998;SDS011;1509;51.964;7.628;2023-01-26T08:41:20;49.53;;;20.73;;
2998;SDS011;1509;51.964;7.628;2023-01-26T08:43:46;50.47;;;18.43;;
2998;SDS011;1509;51.964;7.628;2023-01-26T08:46:12;46.87;;;18.57;;
2998;SDS011;1509;51.964;7.628;2023-01-26T08:48:38;48.43;;;18.97;;
2998;SDS011;1509;51.964;7.628;2023-01-26T08:51:04;46.83;;;17.10;;
2998;SDS011;1509;51.964;7.628;2023-01-26T08:53:31;32.97;;;18.40;;
2998;SDS011;1509;51.964;7.628;2023-01-26T08:56:14;38.00;;;16.77;;
2998;SDS011;1509;51.964;7.628;2023-01-26T08:58:40;37.03;;;16.57;;
2998;SDS011;1509;51.964;7.628;2023-01-26T09:01:10;31.57;;;14.73;;
2998;SDS011;1509;51.964;7.628;2023-01-26T09:03:37;35.30;;;14.97;;
2998;SDS011;1509;51.964;7.628;2023-01-26T09:06:03;36.53;;;16.90;;
2998;SDS011;1509;51.964;7.628;2023-01-26T09:08:31;30.37;;;14.10;;
2998;SDS011;1509;51.964;7.628;2023-01-26T09:11:00;27.97;;;12.90;;
2998;SDS011;1509;51.964;7.628;2023-01-26T09:13:26;26.60;;;11.80;;
2998;SDS011;1509;51.964;7.628;2023-01-26T09:15:52;27.13;;;13.73;;
2998;SDS011;1509;51.964;7.628;2023-01-26T09:18:18;26.47;;;12.33;;
2998;SDS011;1509;51.964;7.628;2023-01-26T09:20:44;25.03;;;11.80;;
2998;SDS011;1509;51.964;7.628;2023-01-26T09:23:10;32.97;;;12.93;;
2998;SDS011;1509;51.964;7.628;2023-01-26T09:25:36;24.47;;;12.53;;
2998;SDS011;1509;51.964;7.628;2023-01-26T09:28:03;28.83;;;13.20;;
2998;SDS011;1509;51.964;7.628;2023-01-26T09:30:29;32.53;;;13.90;;
2998;SDS011;1509;51.964;7.628;2023-01-26T09:32:59;23.57;;;13.67;;
2998;SDS011;1509;51.964;7.628;2023-01-26T09:35:28;25.13;;;10.87;;
2998;SDS011;1509;51.964;7.628;2023-01-26T09:37:55;26.80;;;10.87;;
2998;SDS011;1509;51.964;7.628;2023-01-26T09:40:24;23.93;;;9.80;;
2998;SDS011;1509;51.964;7.628;2023-01-26T09:42:58;22.33;;;9.70;;
2998;SDS011;1509;51.964;7.628;2023-01-26T09:46:03;18.23;;;9.67;;
2998;SDS011;1509;51.964;7.628;2023-01-26T09:48:43;25.83;;;10.10;;
2998;SDS011;1509;51.964;7.628;2023-01-26T09:54:13;22.40;;;10.30;;
2998;SDS011;1509;51.964;7.628;2023-01-26T09:56:59;28.20;;;11.45;;
2998;SDS011;1509;51.964;7.628;2023-01-26T09:59:31;20.00;;;9.90;;
2998;SDS011;1509;51.964;7.628;2023-01-26T10:04:41;21.83;;;9.77;;
2998;SDS011;1509;51.964;7.628;2023-01-26T10:07:11;20.70;;;9.03;;
2998;SDS011;1509;51.964;7.628;2023-01-26T10:09:39;18.90;;;8.57;;
2998;SDS011;1509;51.964;7.628;2023-01-26T10:12:14;24.70;;;10.40;;
2998;SDS011;1509;51.964;7.628;2023-01-26T10:15:04;21.63;;;8.63;;
2998;SDS011;1509;51.964;7.628;2023-01-26T10:17:38;20.33;;;10.23;;
2998;SDS011;1509;51.964;7.628;2023-01-26T10:20:08;23.07;;;10.00;;
2998;SDS011;1509;51.964;7.628;2023-01-26T10:22:51;25.03;;;11.20;;
2998;SDS011;1509;51.964;7.628;2023-01-26T10:25:24;14.77;;;9.13;;
2998;SDS011;1509;51.964;7.628;2023-01-26T10:27:55;19.20;;;10.87;;
2998;SDS011;1509;51.964;7.628;2023-01-26T10:30:20;20.20;;;8.53;;
2998;SDS011;1509;51.964;7.628;2023-01-26T10:32:47;21.07;;;10.40;;
2998;SDS011;1509;51.964;7.628;2023-01-26T10:35:17;16.60;;;9.40;;
2998;SDS011;1509;51.964;7.628;2023-01-26T10:37:45;21.60;;;8.97;;
2998;SDS011;1509;51.964;7.628;2023-01-26T10:40:11;27.57;;;9.37;;
2998;SDS011;1509;51.964;7.628;2023-01-26T10:42:38;14.40;;;8.70;;
2998;SDS011;1509;51.964;7.628;2023-01-26T10:45:22;21.70;;;9.57;;
2998;SDS011;1509;51.964;7.628;2023-01-26T10:48:03;28.17;;;9.77;;
2998;SDS011;1509;51.964;7.628;2023-01-26T10:50:35;16.90;;;9.80;;
2998;SDS011;1509;51.964;7.628;2023-01-26T10:53:03;21.63;;;9.63;;
2998;SDS011;1509;51.964;7.628;2023-01-26T10:55:30;21.43;;;8.17;;
2998;SDS011;1509;51.964;7.628;2023-01-26T10:58:01;18.60;;;10.03;;
2998;SDS011;1509;51.964;7.628;2023-01-26T11:00:27;16.27;;;8.73;;
2998;SDS011;1509;51.964;7.628;2023-01-26T11:05:28;20.13;;;9.40;;
2998;SDS011;1509;51.964;7.628;2023-01-26T11:07:54;17.33;;;7.77;;
2998;SDS011;1509;51.964;7.628;2023-01-26T11:13:07;17.40;;;10.33;;
2998;SDS011;1509;51.964;7.628;2023-01-26T11:15:39;15.80;;;8.70;;
2998;SDS011;1509;51.964;7.628;2023-01-26T11:18:53;15.67;;;8.10;;
2998;SDS011;1509;51.964;7.628;2023-01-26T11:20:55;17.47;;;9.60;;
2998;SDS011;1509;51.964;7.628;2023-01-26T11:32:15;15.43;;;8.37;;
2998;SDS011;1509;51.964;7.628;2023-01-26T11:37:38;17.20;;;8.60;;
2998;SDS011;1509;51.964;7.628;2023-01-26T11:40:23;19.50;;;8.40;;
2998;SDS011;1509;51.964;7.628;2023-01-26T11:43:10;19.63;;;8.50;;
2998;SDS011;1509;51.964;7.628;2023-01-26T11:54:01;15.43;;;8.13;;
2998;SDS011;1509;51.964;7.628;2023-01-26T11:59:32;13.07;;;7.00;;
2998;SDS011;1509;51.964;7.628;2023-01-26T12:02:05;14.73;;;8.20;;
2998;SDS011;1509;51.964;7.628;2023-01-26T12:04:51;11.43;;;7.13;;
2998;SDS011;1509;51.964;7.628;2023-01-26T12:07:29;14.73;;;7.77;;
2998;SDS011;1509;51.964;7.628;2023-01-26T12:10:20;16.13;;;6.77;;
2998;SDS011;1509;51.964;7.628;2023-01-26T12:13:18;16.53;;;9.47;;
2998;SDS011;1509;51.964;7.628;2023-01-26T12:15:54;12.17;;;7.60;;
2998;SDS011;1509;51.964;7.628;2023-01-26T12:18:28;15.17;;;7.40;;
2998;SDS011;1509;51.964;7.628;2023-01-26T12:21:07;13.73;;;7.93;;
2998;SDS011;1509;51.964;7.628;2023-01-26T12:26:13;19.80;;;8.97;;
2998;SDS011;1509;51.964;7.628;2023-01-26T12:34:24;14.97;;;7.70;;
2998;SDS011;1509;51.964;7.628;2023-01-26T12:42:45;16.20;;;7.27;;
2998;SDS011;1509;51.964;7.628;2023-01-26T12:45:24;12.43;;;7.60;;
2998;SDS011;1509;51.964;7.628;2023-01-26T12:47:55;13.07;;;8.33;;
2998;SDS011;1509;51.964;7.628;2023-01-26T12:50:39;13.43;;;8.10;;
2998;SDS011;1509;51.964;7.628;2023-01-26T12:53:13;21.60;;;9.43;;
2998;SDS011;1509;51.964;7.628;2023-01-26T12:55:52;17.20;;;8.53;;
2998;SDS011;1509;51.964;7.628;2023-01-26T12:58:35;23.20;;;10.17;;
2998;SDS011;1509;51.964;7.628;2023-01-26T13:01:07;20.87;;;8.90;;
2998;SDS011;1509;51.964;7.628;2023-01-26T13:03:44;29.67;;;10.03;;
2998;SDS011;1509;51.964;7.628;2023-01-26T13:06:27;36.70;;;11.90;;
2998;SDS011;1509;51.964;7.628;2023-01-26T13:24:56;34.03;;;13.90;;
2998;SDS011;1509;51.964;7.628;2023-01-26T13:29:52;37.90;;;14.40;;
2998;SDS011;1509;51.964;7.628;2023-01-26T13:34:48;43.93;;;15.60;;
2998;SDS011;1509;51.964;7.628;2023-01-26T13:40:33;47.00;;;16.30;;
2998;SDS011;1509;51.964;7.628;2023-01-26T13:48:39;44.10;;;16.57;;
2998;SDS011;1509;51.964;7.628;2023-01-26T13:51:12;41.67;;;18.47;;
2998;SDS011;1509;51.964;7.628;2023-01-26T13:53:50;45.13;;;16.80;;
2998;SDS011;1509;51.964;7.628;2023-01-26T13:56:25;45.60;;;16.63;;
2998;SDS011;1509;51.964;7.628;2023-01-26T13:59:01;36.37;;;16.13;;
2998;SDS011;1509;51.964;7.628;2023-01-26T14:01:32;52.37;;;16.43;;
2998;SDS011;1509;51.964;7.628;2023-01-26T14:04:02;43.30;;;17.47;;
2998;SDS011;1509;51.964;7.628;2023-01-26T14:06:28;49.63;;;17.87;;
2998;SDS011;1509;51.964;7.628;2023-01-26T14:08:54;41.03;;;16.53;;
2998;SDS011;1509;51.964;7.628;2023-01-26T14:11:21;51.50;;;15.93;;
2998;SDS011;1509;51.964;7.628;2023-01-26T14:13:53;39.57;;;17.00;;
2998;SDS011;1509;51.964;7.628;2023-01-26T14:16:30;41.03;;;17.37;;
2998;SDS011;1509;51.964;7.628;2023-01-26T14:19:03;40.23;;;16.77;;
2998;SDS011;1509;51.964;7.628;2023-01-26T14:21:30;58.23;;;16.10;;
2998;SDS011;1509;51.964;7.628;2023-01-26T14:23:57;29.67;;;14.43;;
2998;SDS011;1509;51.964;7.628;2023-01-26T14:26:30;44.27;;;14.60;;
2998;SDS011;1509;51.964;7.628;2023-01-26T14:28:57;37.00;;;15.43;;
2998;SDS011;1509;51.964;7.628;2023-01-26T14:31:25;42.10;;;16.90;;
2998;SDS011;1509;51.964;7.628;2023-01-26T14:33:53;39.23;;;16.00;;
2998;SDS011;1509;51.964;7.628;2023-01-26T14:36:22;46.57;;;15.83;;
2998;SDS011;1509;51.964;7.628;2023-01-26T14:38:50;36.60;;;16.13;;
2998;SDS011;1509;51.964;7.628;2023-01-26T14:41:19;45.47;;;17.13;;
2998;SDS011;1509;51.964;7.628;2023-01-26T14:43:55;36.73;;;14.77;;
2998;SDS011;1509;51.964;7.628;2023-01-26T14:46:23;44.63;;;14.90;;
2998;SDS011;1509;51.964;7.628;2023-01-26T14:49:54;40.63;;;14.20;;
2998;SDS011;1509;51.964;7.628;2023-01-26T14:55:11;44.40;;;15.80;;
2998;SDS011;1509;51.964;7.628;2023-01-26T14:57:41;39.67;;;13.80;;
2998;SDS011;1509;51.964;7.628;2023-01-26T15:00:17;43.70;;;15.17;;
2998;SDS011;1509;51.964;7.628;2023-01-26T15:02:47;42.00;;;16.60;;
2998;SDS011;1509;51.964;7.628;2023-01-26T15:05:14;35.07;;;15.50;;
2998;SDS011;1509;51.964;7.628;2023-01-26T15:07:43;42.97;;;15.70;;
2998;SDS011;1509;51.964;7.628;2023-01-26T15:12:59;37.77;;;13.73;;
2998;SDS011;1509;51.964;7.628;2023-01-26T15:15:31;34.93;;;16.47;;
2998;SDS011;1509;51.964;7.628;2023-01-26T15:18:20;31.53;;;14.40;;
2998;SDS011;1509;51.964;7.628;2023-01-26T15:20:53;47.10;;;14.03;;
2998;SDS011;1509;51.964;7.628;2023-01-26T15:23:41;52.43;;;14.53;;
2998;SDS011;1509;51.964;7.628;2023-01-26T15:26:09;29.13;;;12.90;;
2998;SDS011;1509;51.964;7.628;2023-01-26T15:28:57;39.80;;;15.03;;
2998;SDS011;1509;51.964;7.628;2023-01-26T15:31:32;38.63;;;15.40;;
2998;SDS011;1509;51.964;7.628;2023-01-26T15:34:00;51.57;;;16.57;;
2998;SDS011;1509;51.964;7.628;2023-01-26T15:41:26;31.93;;;14.30;;
2998;SDS011;1509;51.964;7.628;2023-01-26T15:43:52;34.07;;;17.77;;
2998;SDS011;1509;51.964;7.628;2023-01-26T15:46:17;40.00;;;16.23;;
2998;SDS011;1509;51.964;7.628;2023-01-26T15:48:43;42.70;;;17.07;;
2998;SDS011;1509;51.964;7.628;2023-01-26T15:51:12;39.03;;;16.07;;
2998;SDS011;1509;51.964;7.628;2023-01-26T15:53:39;39.50;;;15.30;;
2998;SDS011;1509;51.964;7.628;2023-01-26T15:56:04;45.03;;;16.60;;
2998;SDS011;1509;51.964;7.628;2023-01-26T15:58:30;44.63;;;16.00;;
2998;SDS011;1509;51.964;7.628;2023-01-26T16:01:00;48.53;;;20.13;;
2998;SDS011;1509;51.964;7.628;2023-01-26T16:03:26;36.43;;;15.60;;
2998;SDS011;1509;51.964;7.628;2023-01-26T16:05:54;30.83;;;16.20;;
2998;SDS011;1509;51.964;7.628;2023-01-26T16:08:19;39.40;;;18.60;;
2998;SDS011;1509;51.964;7.628;2023-01-26T16:10:45;47.80;;;18.50;;
2998;SDS011;1509;51.964;7.628;2023-01-26T16:13:15;49.77;;;19.33;;
2998;SDS011;1509;51.964;7.628;2023-01-26T16:15:50;48.10;;;19.67;;
2998;SDS011;1509;51.964;7.628;2023-01-26T16:18:17;45.70;;;17.00;;
2998;SDS011;1509;51.964;7.628;2023-01-26T16:20:44;39.90;;;17.73;;
2998;SDS011;1509;51.964;7.628;2023-01-26T16:23:18;37.50;;;18.37;;
2998;SDS011;1509;51.964;7.628;2023-01-26T16:25:46;37.53;;;14.00;;
2998;SDS011;1509;51.964;7.628;2023-01-26T16:28:12;34.33;;;15.13;;
2998;SDS011;1509;51.964;7.628;2023-01-26T16:30:39;37.97;;;15.67;;
2998;SDS011;1509;51.964;7.628;2023-01-26T16:33:07;33.60;;;16.87;;
2998;SDS011;1509;51.964;7.628;2023-01-26T16:35:35;30.60;;;13.40;;
2998;SDS011;1509;51.964;7.628;2023-01-26T16:38:03;38.20;;;14.83;;
2998;SDS011;1509;51.964;7.628;2023-01-26T16:40:31;35.53;;;15.80;;
2998;SDS011;1509;51.964;7.628;2023-01-26T16:42:57;40.97;;;15.50;;
2998;SDS011;1509;51.964;7.628;2023-01-26T16:45:24;37.40;;;15.83;;
2998;SDS011;1509;51.964;7.628;2023-01-26T16:47:54;35.93;;;15.13;;
2998;SDS011;1509;51.964;7.628;2023-01-26T16:50:21;29.13;;;14.47;;